createdAt,value
2019-02-18T00:00:35.457Z,21.45
2019-02-18T00:05:39.256Z,21.43
2019-02-18T00:10:43.097Z,21.44
2019-02-18T00:15:46.920Z,21.43
2019-02-18T00:20:50.737Z,21.43
2019-02-18T00:25:54.544Z,21.44
2019-02-18T00:30:58.351Z,21.38
2019-02-18T00:36:02.164Z,21.41
2019-02-18T00:41:06.003Z,21.37
2019-02-18T00:46:09.827Z,21.37
2019-02-18T00:51:13.644Z,21.42
2019-02-18T00:56:17.481Z,21.36
2019-02-18T01:01:21.325Z,21.38
2019-02-18T01:06:25.137Z,21.38
2019-02-18T01:11:28.956Z,21.35
2019-02-18T01:16:32.800Z,21.34
2019-02-18T01:21:36.600Z,21.35
2019-02-18T01:26:40.401Z,21.27
2019-02-18T01:31:44.209Z,21.34
2019-02-18T01:36:48.018Z,21.33
2019-02-18T01:41:54.169Z,21.35
2019-02-18T01:47:00.094Z,21.35
2019-02-18T01:52:03.922Z,21.33
2019-02-18T01:57:07.763Z,21.35
2019-02-18T02:02:11.600Z,21.36
2019-02-18T02:07:15.433Z,21.35
2019-02-18T02:12:19.263Z,21.35
2019-02-18T02:17:23.091Z,21.32
2019-02-18T02:22:26.933Z,21.31
2019-02-18T02:27:30.737Z,21.33
2019-02-18T02:32:34.570Z,21.34
2019-02-18T02:37:38.405Z,21.34
2019-02-18T02:42:42.237Z,21.31
2019-02-18T02:47:46.075Z,21.31
2019-02-18T02:52:49.921Z,21.34
2019-02-18T02:57:53.730Z,21.31
2019-02-18T03:02:57.545Z,21.31
2019-02-18T03:08:01.380Z,21.30
2019-02-18T03:13:05.200Z,21.32
2019-02-18T03:18:09.031Z,21.30
2019-02-18T03:23:12.850Z,21.28
2019-02-18T03:28:42.096Z,21.29
2019-02-18T03:33:58.970Z,21.27
2019-02-18T03:39:04.662Z,21.30
2019-02-18T03:44:08.468Z,21.28
2019-02-18T03:49:12.267Z,21.28
2019-02-18T03:54:16.079Z,21.23
2019-02-18T03:59:19.903Z,21.19
2019-02-18T04:04:23.730Z,21.18
2019-02-18T04:09:27.520Z,21.07
2019-02-18T04:14:31.366Z,21.12
2019-02-18T04:19:35.183Z,21.09
2019-02-18T04:24:39.004Z,21.09
2019-02-18T04:29:42.823Z,21.04
2019-02-18T04:34:46.659Z,21.04
2019-02-18T04:39:50.452Z,20.97
2019-02-18T04:44:54.251Z,20.97
2019-02-18T04:49:58.084Z,20.85
2019-02-18T04:55:01.944Z,20.82
2019-02-18T05:00:08.433Z,20.82
2019-02-18T05:05:12.015Z,20.71
2019-02-18T05:10:15.825Z,20.63
2019-02-18T05:15:19.628Z,20.63
2019-02-18T05:20:23.455Z,20.62
2019-02-18T05:25:27.232Z,20.52
2019-02-18T05:30:31.049Z,20.52
2019-02-18T05:35:34.867Z,20.53
2019-02-18T05:40:38.683Z,20.52
2019-02-18T05:45:42.509Z,20.51
2019-02-18T05:50:46.323Z,20.54
2019-02-18T05:55:50.147Z,20.45
2019-02-18T06:00:53.947Z,20.52
2019-02-18T06:05:57.747Z,20.52
2019-02-18T06:11:01.562Z,20.50
2019-02-18T06:16:05.372Z,20.51
2019-02-18T06:21:09.177Z,20.50
2019-02-18T06:26:13.003Z,20.50
2019-02-18T06:31:16.808Z,20.50
2019-02-18T06:36:20.637Z,20.46
2019-02-18T06:41:24.448Z,20.46
2019-02-18T06:46:31.445Z,20.46
2019-02-18T06:51:35.244Z,20.33
2019-02-18T06:56:49.528Z,20.44
2019-02-18T07:02:10.388Z,20.40
2019-02-18T07:07:20.449Z,20.40
2019-02-18T07:12:27.852Z,20.38
2019-02-18T07:17:31.618Z,20.38
2019-02-18T07:22:35.416Z,20.36
2019-02-18T07:27:39.203Z,20.36
2019-02-18T07:32:43.227Z,20.36
2019-02-18T07:37:47.067Z,20.30
2019-02-18T07:42:50.872Z,20.23
2019-02-18T07:47:54.657Z,20.17
2019-02-18T07:52:58.441Z,20.28
2019-02-18T07:58:02.221Z,20.32
2019-02-18T08:03:06.003Z,20.34
2019-02-18T08:08:09.782Z,20.44
2019-02-18T08:13:13.588Z,20.37
2019-02-18T08:18:17.367Z,20.37
2019-02-18T08:23:21.162Z,20.36
2019-02-18T08:28:24.952Z,20.34
2019-02-18T08:33:28.741Z,20.34
2019-02-18T08:38:32.551Z,20.34
2019-02-18T08:43:36.336Z,20.35
2019-02-18T08:48:40.129Z,20.33
2019-02-18T08:53:43.926Z,20.33
2019-02-18T08:58:47.736Z,20.34
2019-02-18T09:03:51.532Z,20.31
2019-02-18T09:08:55.306Z,20.33
2019-02-18T09:13:59.103Z,20.32
2019-02-18T09:19:02.891Z,20.32
2019-02-18T09:24:20.151Z,20.31
2019-02-18T09:29:23.927Z,20.32
2019-02-18T09:34:27.715Z,20.31
2019-02-18T09:39:31.846Z,20.31
2019-02-18T09:44:35.716Z,16.54
2019-02-18T09:49:39.587Z,16.54
2019-02-18T09:54:43.404Z,16.34
2019-02-18T09:59:47.225Z,16.13
2019-02-18T10:04:51.062Z,16.10
2019-02-18T10:09:54.875Z,16.10
2019-02-18T10:14:58.693Z,15.63
2019-02-18T10:20:02.491Z,15.50
2019-02-18T10:25:07.526Z,15.50
2019-02-18T10:30:11.760Z,15.69
2019-02-18T10:35:15.603Z,15.78
2019-02-18T10:40:19.391Z,15.96
2019-02-18T10:45:23.216Z,15.92
2019-02-18T10:50:27.022Z,15.92
2019-02-18T10:55:30.982Z,16.31
2019-02-18T11:00:34.960Z,16.53
2019-02-18T11:05:38.767Z,16.53
2019-02-18T11:10:42.586Z,16.65
2019-02-18T11:15:46.395Z,16.70
2019-02-18T11:20:50.211Z,17.03
2019-02-18T11:25:54.015Z,17.53
2019-02-18T11:30:57.827Z,17.53
2019-02-18T11:36:01.653Z,17.53
2019-02-18T11:41:05.452Z,17.73
2019-02-18T11:46:09.259Z,17.56
2019-02-18T11:51:13.334Z,17.68
2019-02-18T11:56:17.158Z,17.88
2019-02-18T12:01:21.093Z,17.88
2019-02-18T12:06:24.906Z,17.99
2019-02-18T12:11:37.923Z,17.80
2019-02-18T12:16:34.330Z,18.43
2019-02-18T12:21:38.282Z,18.78
2019-02-18T12:26:42.098Z,18.78
2019-02-18T12:31:45.916Z,19.36
2019-02-18T12:36:49.759Z,20.15
2019-02-18T12:41:53.564Z,20.33
2019-02-18T12:46:57.392Z,20.40
2019-02-18T12:52:01.581Z,20.41
2019-02-18T12:57:05.408Z,20.37
2019-02-18T13:02:09.220Z,20.37
2019-02-18T13:07:13.315Z,20.62
2019-02-18T13:12:17.204Z,20.62
2019-02-18T13:17:20.992Z,20.69
2019-02-18T13:22:24.798Z,20.67
2019-02-18T13:27:28.800Z,20.67
2019-02-18T13:32:32.611Z,20.66
2019-02-18T13:37:36.414Z,20.70
2019-02-18T13:42:40.216Z,20.70
2019-02-18T13:47:44.021Z,20.70
2019-02-18T13:52:47.829Z,20.68
2019-02-18T13:57:51.639Z,20.71
2019-02-18T14:02:55.465Z,20.71
2019-02-18T14:07:59.271Z,20.72
2019-02-18T14:13:03.094Z,20.67
2019-02-18T14:18:06.931Z,20.92
2019-02-18T14:23:11.227Z,20.74
2019-02-18T14:28:15.055Z,20.74
2019-02-18T14:33:18.873Z,20.75
2019-02-18T14:38:22.697Z,20.65
2019-02-18T14:43:26.491Z,20.65
2019-02-18T14:48:30.690Z,20.66
2019-02-18T14:53:34.489Z,20.75
2019-02-18T14:58:38.330Z,20.82
2019-02-18T15:03:42.157Z,20.82
2019-02-18T15:08:45.978Z,20.78
2019-02-18T15:13:49.790Z,20.67
2019-02-18T15:18:53.602Z,20.61
2019-02-18T15:23:57.413Z,20.59
2019-02-18T15:29:01.214Z,20.56
2019-02-18T15:34:05.038Z,20.56
2019-02-18T15:39:08.856Z,20.52
2019-02-18T15:44:12.693Z,20.52
2019-02-18T15:49:16.887Z,20.51
2019-02-18T15:54:20.716Z,20.51
2019-02-18T15:59:24.527Z,20.68
2019-02-18T16:04:28.332Z,20.59
2019-02-18T16:09:32.127Z,20.59
2019-02-18T16:14:36.330Z,20.58
2019-02-18T16:19:40.159Z,20.58
2019-02-18T16:24:43.974Z,20.59
2019-02-18T16:29:48.614Z,20.72
2019-02-18T16:34:52.505Z,20.72
2019-02-18T16:39:57.085Z,20.69
2019-02-18T16:45:00.939Z,20.67
2019-02-18T16:50:05.173Z,20.58
2019-02-18T16:55:10.109Z,20.79
2019-02-18T17:00:29.029Z,20.77
2019-02-18T17:05:32.896Z,21.14
2019-02-18T17:10:36.692Z,21.14
2019-02-18T17:15:40.591Z,21.77
2019-02-18T17:20:44.431Z,21.82
2019-02-18T17:25:48.514Z,21.92
2019-02-18T17:30:52.339Z,21.94
2019-02-18T17:35:56.184Z,22.07
2019-02-18T17:41:01.482Z,22.07
2019-02-18T17:46:05.429Z,22.10
2019-02-18T17:51:09.247Z,21.97
2019-02-18T17:56:13.055Z,21.97
2019-02-18T18:01:16.880Z,22.13
2019-02-18T18:06:20.867Z,22.16
2019-02-18T18:11:24.703Z,22.02
2019-02-18T18:16:28.523Z,22.02
2019-02-18T18:21:32.335Z,22.12
2019-02-18T18:26:36.142Z,22.13
2019-02-18T18:31:39.945Z,22.13
2019-02-18T18:36:43.770Z,22.31
2019-02-18T18:41:47.570Z,22.23
2019-02-18T18:46:51.416Z,22.30
2019-02-18T18:51:55.618Z,22.18
2019-02-18T18:56:59.435Z,22.16
2019-02-18T19:02:03.321Z,22.14
2019-02-18T19:07:07.149Z,22.34
2019-02-18T19:12:10.965Z,22.44
2019-02-18T19:17:14.777Z,22.22
2019-02-18T19:22:18.604Z,22.22
2019-02-18T19:27:22.796Z,22.38
2019-02-18T19:32:26.627Z,22.27
2019-02-18T19:37:30.479Z,22.26
2019-02-18T19:42:34.273Z,22.17
2019-02-18T19:47:38.060Z,22.15
2019-02-18T19:52:41.843Z,22.15
2019-02-18T19:57:45.647Z,22.20
2019-02-18T20:02:49.825Z,22.37
2019-02-18T20:07:53.655Z,22.40
2019-02-18T20:12:57.457Z,22.32
2019-02-18T20:18:01.239Z,22.30
2019-02-18T20:23:05.048Z,22.30
2019-02-18T20:28:08.832Z,22.19
2019-02-18T20:33:12.607Z,22.15
2019-02-18T20:38:16.430Z,22.06
2019-02-18T20:43:20.210Z,21.98
2019-02-18T20:48:23.991Z,22.01
2019-02-18T20:53:27.809Z,21.94
2019-02-18T20:58:31.610Z,21.85
2019-02-18T21:03:35.707Z,21.79
2019-02-18T21:08:39.570Z,21.82
2019-02-18T21:13:43.362Z,21.75
2019-02-18T21:18:47.156Z,21.75
2019-02-18T21:23:51.032Z,21.69
2019-02-18T21:28:54.867Z,21.64
2019-02-18T21:33:58.669Z,21.74
2019-02-18T21:39:04.108Z,21.78
2019-02-18T21:44:07.981Z,21.75
2019-02-18T21:49:14.074Z,21.75
2019-02-18T21:54:17.922Z,21.74
2019-02-18T21:59:21.716Z,21.72
2019-02-18T22:04:25.989Z,21.72
2019-02-18T22:09:29.783Z,21.70
2019-02-18T22:14:35.707Z,21.72
2019-02-18T22:19:39.117Z,21.77
2019-02-18T22:24:42.973Z,21.77
2019-02-18T22:29:47.054Z,21.70
2019-02-18T22:34:50.856Z,21.70
2019-02-18T22:39:54.640Z,21.66
2019-02-18T22:44:58.471Z,21.67
2019-02-18T22:50:02.507Z,21.67
2019-02-18T22:55:07.067Z,21.62
2019-02-18T23:00:18.427Z,21.66
2019-02-18T23:05:22.292Z,21.66
2019-02-18T23:10:26.092Z,21.61
2019-02-18T23:15:29.866Z,21.64
2019-02-18T23:20:33.826Z,21.61
2019-02-18T23:25:37.628Z,21.61
2019-02-18T23:30:41.417Z,21.60
2019-02-18T23:35:45.310Z,21.59
2019-02-18T23:40:49.126Z,21.59
2019-02-18T23:45:52.958Z,21.61
2019-02-18T23:50:56.762Z,21.55
2019-02-18T23:56:00.563Z,21.61
